createdAt,value
2022-12-18T00:01:19.431Z,44.60
2022-12-18T00:03:21.454Z,38.42
2022-12-18T00:05:23.628Z,49.50
2022-12-18T00:07:28.692Z,43.58
2022-12-18T00:09:31.340Z,50.47
2022-12-18T00:11:41.996Z,47.75
2022-12-18T00:13:44.515Z,42.28
2022-12-18T00:15:46.360Z,41.13
2022-12-18T00:17:52.040Z,44.25
2022-12-18T00:19:53.734Z,45.55
2022-12-18T00:21:55.550Z,58.60
2022-12-18T00:24:00.246Z,38.97
2022-12-18T00:26:03.051Z,48.13
2022-12-18T00:28:05.291Z,48.72
2022-12-18T00:30:08.010Z,60.60
2022-12-18T00:32:09.745Z,47.10
2022-12-18T00:34:14.256Z,48.83
2022-12-18T00:36:20.084Z,53.13
2022-12-18T00:38:21.687Z,48.40
2022-12-18T00:40:23.570Z,51.70
2022-12-18T00:42:25.559Z,51.60
2022-12-18T00:44:27.690Z,49.75
2022-12-18T00:46:29.549Z,44.72
2022-12-18T00:48:31.449Z,54.88
2022-12-18T00:50:34.662Z,48.45
2022-12-18T00:52:36.445Z,47.50
2022-12-18T00:54:38.241Z,54.50
2022-12-18T00:56:48.165Z,58.28
2022-12-18T00:58:50.900Z,49.95
2022-12-18T01:00:54.049Z,40.17
2022-12-18T01:02:55.931Z,54.05
2022-12-18T01:04:57.944Z,45.20
2022-12-18T01:07:01.360Z,47.65
2022-12-18T01:09:03.648Z,56.25
2022-12-18T01:11:09.435Z,59.15
2022-12-18T01:13:11.308Z,40.42
2022-12-18T01:15:15.362Z,53.97
2022-12-18T01:17:17.058Z,55.40
2022-12-18T01:19:19.090Z,46.17
2022-12-18T01:21:21.114Z,40.50
2022-12-18T01:23:24.657Z,47.88
2022-12-18T01:25:26.366Z,44.42
2022-12-18T01:27:28.140Z,45.10
2022-12-18T01:29:31.758Z,45.95
2022-12-18T01:31:35.155Z,46.85
2022-12-18T01:33:37.579Z,47.30
2022-12-18T01:35:42.113Z,40.20
2022-12-18T01:37:43.826Z,41.72
2022-12-18T01:39:47.132Z,46.65
2022-12-18T01:41:49.087Z,40.20
2022-12-18T01:43:53.613Z,39.53
2022-12-18T01:45:55.311Z,40.92
2022-12-18T01:48:03.981Z,42.45
2022-12-18T01:50:09.543Z,41.63
2022-12-18T01:52:11.618Z,45.40
2022-12-18T01:54:13.678Z,44.90
2022-12-18T01:56:18.902Z,41.90
2022-12-18T01:58:24.247Z,46.33
2022-12-18T02:00:27.195Z,43.47
2022-12-18T02:02:30.840Z,47.95
2022-12-18T02:04:34.775Z,44.78
2022-12-18T02:06:42.440Z,38.95
2022-12-18T02:08:56.579Z,49.08
2022-12-18T02:11:07.790Z,49.50
2022-12-18T02:13:16.263Z,46.70
2022-12-18T02:15:24.153Z,46.22
2022-12-18T02:17:34.801Z,43.30
2022-12-18T02:19:48.293Z,47.63
2022-12-18T02:21:58.754Z,50.85
2022-12-18T02:24:15.326Z,39.70
2022-12-18T02:26:27.267Z,48.25
2022-12-18T02:28:34.516Z,46.72
2022-12-18T02:30:38.743Z,39.90
2022-12-18T02:32:44.346Z,45.30
2022-12-18T02:34:48.591Z,46.03
2022-12-18T02:36:52.866Z,40.63
2022-12-18T02:38:58.697Z,42.78
2022-12-18T02:41:01.471Z,51.38
2022-12-18T02:43:11.107Z,44.72
2022-12-18T02:45:12.897Z,41.60
2022-12-18T02:47:18.037Z,42.65
2022-12-18T02:49:41.111Z,39.15
2022-12-18T02:51:51.707Z,43.50
2022-12-18T02:54:02.302Z,54.00
2022-12-18T02:56:09.915Z,49.58
2022-12-18T02:58:17.506Z,44.53
2022-12-18T03:00:22.968Z,40.53
2022-12-18T03:02:32.347Z,44.10
2022-12-18T03:04:43.398Z,43.97
2022-12-18T03:06:49.588Z,39.33
2022-12-18T03:08:59.198Z,41.65
2022-12-18T03:11:05.453Z,50.75
2022-12-18T03:13:11.627Z,43.55
2022-12-18T03:15:19.726Z,37.72
2022-12-18T03:17:25.684Z,40.38
2022-12-18T03:19:30.862Z,43.78
2022-12-18T03:21:38.104Z,35.60
2022-12-18T03:23:45.650Z,43.38
2022-12-18T03:25:48.905Z,37.65
2022-12-18T03:27:55.850Z,39.17
2022-12-18T03:30:03.868Z,43.08
2022-12-18T03:32:11.783Z,47.03
2022-12-18T03:34:18.771Z,43.75
2022-12-18T03:36:20.823Z,39.58
2022-12-18T03:38:22.884Z,41.10
2022-12-18T03:40:32.711Z,40.55
2022-12-18T03:42:42.978Z,46.72
2022-12-18T03:44:53.903Z,41.20
2022-12-18T03:47:02.835Z,42.65
2022-12-18T03:49:12.777Z,50.63
2022-12-18T03:51:20.277Z,51.97
2022-12-18T03:53:32.376Z,47.85
2022-12-18T03:55:35.917Z,46.10
2022-12-18T03:57:39.137Z,40.85
2022-12-18T03:59:42.471Z,46.75
2022-12-18T04:01:49.200Z,45.13
2022-12-18T04:03:52.365Z,41.08
2022-12-18T04:05:56.746Z,39.15
2022-12-18T04:07:59.007Z,40.28
2022-12-18T04:10:02.395Z,46.25
2022-12-18T04:12:04.836Z,39.28
2022-12-18T04:14:07.458Z,38.13
2022-12-18T04:16:09.818Z,40.50
2022-12-18T04:18:11.811Z,39.55
2022-12-18T04:20:13.702Z,43.78
2022-12-18T04:22:17.222Z,40.25
2022-12-18T04:24:18.873Z,37.67
2022-12-18T04:26:20.777Z,43.75
2022-12-18T04:28:22.863Z,41.38
2022-12-18T04:30:24.672Z,47.70
2022-12-18T04:32:26.862Z,43.45
2022-12-18T04:34:28.811Z,45.28
2022-12-18T04:36:30.515Z,41.40
2022-12-18T04:38:33.743Z,38.58
2022-12-18T04:40:39.146Z,39.90
2022-12-18T04:42:41.627Z,39.72
2022-12-18T04:44:43.407Z,37.92
2022-12-18T04:46:45.178Z,46.08
2022-12-18T04:48:47.712Z,38.90
2022-12-18T04:50:49.551Z,42.90
2022-12-18T04:52:51.429Z,38.42
2022-12-18T04:54:54.604Z,46.47
2022-12-18T04:56:56.428Z,41.00
2022-12-18T04:58:58.298Z,41.40
2022-12-18T05:01:00.282Z,41.40
2022-12-18T05:03:02.414Z,40.75
2022-12-18T05:05:04.948Z,39.13
2022-12-18T05:07:07.258Z,37.65
2022-12-18T05:09:09.586Z,39.35
2022-12-18T05:11:15.293Z,39.42
2022-12-18T05:13:17.125Z,38.67
2022-12-18T05:15:18.884Z,40.28
2022-12-18T05:17:20.742Z,39.60
2022-12-18T05:19:22.521Z,35.63
2022-12-18T05:21:25.511Z,36.03
2022-12-18T05:23:29.079Z,38.95
2022-12-18T05:25:30.724Z,39.05
2022-12-18T05:27:34.426Z,38.95
2022-12-18T05:29:36.090Z,35.45
2022-12-18T05:31:39.802Z,35.28
2022-12-18T05:33:42.053Z,37.83
2022-12-18T05:35:44.411Z,36.17
2022-12-18T05:37:46.497Z,32.45
2022-12-18T05:39:48.249Z,34.50
2022-12-18T05:41:49.994Z,33.42
2022-12-18T05:43:53.179Z,39.15
2022-12-18T05:45:55.341Z,38.45
2022-12-18T05:47:58.188Z,41.13
2022-12-18T05:49:59.957Z,35.17
2022-12-18T05:52:02.044Z,37.25
2022-12-18T05:54:04.080Z,43.33
2022-12-18T05:56:10.049Z,35.97
2022-12-18T05:58:13.987Z,37.78
2022-12-18T06:00:19.910Z,39.10
2022-12-18T06:02:21.596Z,42.63
2022-12-18T06:04:23.418Z,35.00
2022-12-18T06:06:27.222Z,37.30
2022-12-18T06:08:29.299Z,38.28
2022-12-18T06:10:31.414Z,36.72
2022-12-18T06:12:33.152Z,38.85
2022-12-18T06:14:34.970Z,40.00
2022-12-18T06:16:38.372Z,36.85
2022-12-18T06:18:43.300Z,50.00
2022-12-18T06:20:45.003Z,34.53
2022-12-18T06:22:47.209Z,40.33
2022-12-18T06:24:49.139Z,41.10
2022-12-18T06:26:50.867Z,41.78
2022-12-18T06:28:53.423Z,48.47
2022-12-18T06:30:55.609Z,47.70
2022-12-18T06:32:58.723Z,41.95
2022-12-18T06:35:00.831Z,44.22
2022-12-18T06:37:02.533Z,40.15
2022-12-18T06:39:04.541Z,39.88
2022-12-18T06:41:08.188Z,42.55
2022-12-18T06:43:09.896Z,37.83
2022-12-18T06:45:11.927Z,41.55
2022-12-18T06:47:16.315Z,46.90
2022-12-18T06:49:30.170Z,43.55
2022-12-18T06:51:32.292Z,70.20
2022-12-18T06:53:34.679Z,45.13
2022-12-18T06:55:36.464Z,45.05
2022-12-18T06:57:38.964Z,42.97
2022-12-18T06:59:40.782Z,49.83
2022-12-18T07:01:42.732Z,69.72
2022-12-18T07:03:45.252Z,86.03
2022-12-18T07:05:48.756Z,55.45
2022-12-18T07:07:50.442Z,51.10
2022-12-18T07:09:52.218Z,47.38
2022-12-18T07:11:54.071Z,77.80
2022-12-18T07:13:56.028Z,51.00
2022-12-18T07:16:07.662Z,63.17
2022-12-18T07:18:13.101Z,60.78
2022-12-18T07:20:15.423Z,50.33
2022-12-18T07:22:18.520Z,47.08
2022-12-18T07:24:20.279Z,54.85
2022-12-18T07:26:24.841Z,68.18
2022-12-18T07:28:26.692Z,63.28
2022-12-18T07:30:28.411Z,65.25
2022-12-18T07:32:31.361Z,57.95
2022-12-18T07:34:33.056Z,52.08
2022-12-18T07:36:37.942Z,65.82
2022-12-18T07:38:41.189Z,49.10
2022-12-18T07:40:44.213Z,54.80
2022-12-18T07:42:45.913Z,56.90
2022-12-18T07:44:47.658Z,53.20
2022-12-18T07:46:49.327Z,57.40
2022-12-18T07:48:51.135Z,47.40
2022-12-18T07:50:53.893Z,57.45
2022-12-18T07:52:55.673Z,51.22
2022-12-18T07:54:59.037Z,63.00
2022-12-18T07:57:01.248Z,49.67
2022-12-18T07:59:05.823Z,55.45
2022-12-18T08:01:09.631Z,55.95
2022-12-18T08:03:16.209Z,54.78
2022-12-18T08:05:20.566Z,53.00
2022-12-18T08:07:25.228Z,60.95
2022-12-18T08:09:27.299Z,55.08
2022-12-18T08:11:35.045Z,45.45
2022-12-18T08:13:38.660Z,51.53
2022-12-18T08:15:40.629Z,50.67
2022-12-18T08:17:42.607Z,61.85
2022-12-18T08:19:44.590Z,53.75
2022-12-18T08:21:46.360Z,51.15
2022-12-18T08:23:49.265Z,53.15
2022-12-18T08:25:52.951Z,69.95
2022-12-18T08:27:56.293Z,54.50
2022-12-18T08:29:58.218Z,45.80
2022-12-18T08:32:00.089Z,53.33
2022-12-18T08:34:01.923Z,48.28
2022-12-18T08:36:05.333Z,56.92
2022-12-18T08:38:07.130Z,45.17
2022-12-18T08:40:13.608Z,51.83
2022-12-18T08:42:15.869Z,45.42
2022-12-18T08:44:19.589Z,54.13
2022-12-18T08:46:23.354Z,60.97
2022-12-18T08:48:28.259Z,42.47
2022-12-18T08:50:30.179Z,49.22
2022-12-18T08:52:33.169Z,43.65
2022-12-18T08:54:34.922Z,54.40
2022-12-18T08:56:36.761Z,50.83
2022-12-18T08:58:38.625Z,49.33
2022-12-18T09:00:42.013Z,63.47
2022-12-18T09:02:49.767Z,55.70
2022-12-18T09:04:57.099Z,51.70
2022-12-18T09:06:59.402Z,52.53
2022-12-18T09:09:05.263Z,47.97
2022-12-18T09:11:13.829Z,60.45
2022-12-18T09:13:17.004Z,48.95
2022-12-18T09:15:18.920Z,55.10
2022-12-18T09:17:22.418Z,45.50
2022-12-18T09:19:24.506Z,49.42
2022-12-18T09:21:28.766Z,44.53
2022-12-18T09:23:33.659Z,49.92
2022-12-18T09:25:38.219Z,52.88
2022-12-18T09:27:40.001Z,50.95
2022-12-18T09:29:41.697Z,54.78
2022-12-18T09:31:43.483Z,54.00
2022-12-18T09:33:46.750Z,45.30
2022-12-18T09:35:48.761Z,61.70
2022-12-18T09:37:50.828Z,54.22
2022-12-18T09:39:52.722Z,48.33
2022-12-18T09:41:56.965Z,42.50
2022-12-18T09:44:02.457Z,46.70
2022-12-18T09:46:07.768Z,46.38
2022-12-18T09:48:15.380Z,43.42
2022-12-18T09:50:25.778Z,52.72
2022-12-18T09:52:33.545Z,51.00
2022-12-18T09:54:39.824Z,47.40
2022-12-18T09:56:43.777Z,57.88
2022-12-18T09:58:51.227Z,51.63
2022-12-18T10:00:52.844Z,49.25
2022-12-18T10:03:00.966Z,53.95
2022-12-18T10:05:12.564Z,47.00
2022-12-18T10:07:22.562Z,55.97
2022-12-18T10:09:34.966Z,49.13
2022-12-18T10:11:48.751Z,60.55
2022-12-18T10:13:55.319Z,54.95
2022-12-18T10:16:14.049Z,52.95
2022-12-18T10:18:26.415Z,63.28
2022-12-18T10:20:34.050Z,49.45
2022-12-18T10:22:44.963Z,53.97
2022-12-18T10:24:53.630Z,44.50
2022-12-18T10:27:05.715Z,48.67
2022-12-18T10:29:12.003Z,46.75
2022-12-18T10:31:17.226Z,51.10
2022-12-18T10:33:20.886Z,59.15
2022-12-18T10:35:24.981Z,50.22
2022-12-18T10:37:29.077Z,45.17
2022-12-18T10:39:32.041Z,57.30
2022-12-18T10:41:33.641Z,52.85
2022-12-18T10:43:37.056Z,46.83
2022-12-18T10:45:38.759Z,49.13
2022-12-18T10:47:44.289Z,70.60
2022-12-18T10:49:50.726Z,62.47
2022-12-18T10:52:04.641Z,53.17
2022-12-18T10:54:16.928Z,85.22
2022-12-18T10:56:21.592Z,55.20
2022-12-18T10:58:27.149Z,51.50
2022-12-18T11:00:30.935Z,52.05
2022-12-18T11:02:37.958Z,60.17
2022-12-18T11:04:52.628Z,50.15
2022-12-18T11:06:59.492Z,56.15
2022-12-18T11:09:05.341Z,49.53
2022-12-18T11:11:19.932Z,53.50
2022-12-18T11:13:24.706Z,48.58
2022-12-18T11:15:30.646Z,48.00
2022-12-18T11:17:34.168Z,52.80
2022-12-18T11:19:37.269Z,52.55
2022-12-18T11:21:40.888Z,50.30
2022-12-18T11:23:49.611Z,49.10
2022-12-18T11:26:04.596Z,52.70
2022-12-18T11:28:26.662Z,54.53
2022-12-18T11:30:32.223Z,49.33
2022-12-18T11:32:37.218Z,49.72
2022-12-18T11:34:39.336Z,50.15
2022-12-18T11:36:43.806Z,54.75
2022-12-18T11:38:48.443Z,51.35
2022-12-18T11:40:56.057Z,58.00
2022-12-18T11:43:07.709Z,48.60
2022-12-18T11:45:25.574Z,51.85
2022-12-18T11:47:38.108Z,58.25
2022-12-18T11:49:42.241Z,51.25
2022-12-18T11:51:49.667Z,48.47
2022-12-18T11:53:52.777Z,62.03
2022-12-18T11:56:20.949Z,51.05
2022-12-18T11:58:35.730Z,55.85
2022-12-18T12:00:43.782Z,53.60
2022-12-18T12:03:23.561Z,57.40
2022-12-18T12:05:46.047Z,49.47
2022-12-18T12:07:57.633Z,52.28
2022-12-18T12:10:13.058Z,55.47
2022-12-18T12:12:31.539Z,51.42
2022-12-18T12:14:48.250Z,46.47
2022-12-18T12:16:56.411Z,51.15
2022-12-18T12:19:14.594Z,52.50
2022-12-18T12:21:22.293Z,56.58
2022-12-18T12:23:32.883Z,49.67
2022-12-18T12:25:40.452Z,51.15
2022-12-18T12:27:54.014Z,53.95
2022-12-18T12:30:04.134Z,47.45
2022-12-18T12:32:17.615Z,57.55
2022-12-18T12:34:26.863Z,60.00
2022-12-18T12:36:39.579Z,44.72
2022-12-18T12:38:49.812Z,56.28
2022-12-18T12:41:03.124Z,51.40
2022-12-18T12:43:17.393Z,60.25
2022-12-18T12:45:24.175Z,51.42
2022-12-18T12:47:31.247Z,51.17
2022-12-18T12:49:40.284Z,46.05
2022-12-18T12:51:47.068Z,64.05
2022-12-18T12:53:50.334Z,51.35
2022-12-18T12:55:53.628Z,53.45
2022-12-18T12:58:03.568Z,54.83
2022-12-18T13:00:10.683Z,53.35
2022-12-18T13:02:19.270Z,51.42
2022-12-18T13:04:28.312Z,54.67
2022-12-18T13:06:44.573Z,58.78
2022-12-18T13:08:55.396Z,53.35
2022-12-18T13:10:59.976Z,54.97
2022-12-18T13:13:04.106Z,57.17
2022-12-18T13:15:21.601Z,55.70
2022-12-18T13:17:29.249Z,62.88
2022-12-18T13:19:34.299Z,55.70
2022-12-18T13:21:37.249Z,64.90
2022-12-18T13:23:42.289Z,59.60
2022-12-18T13:25:44.066Z,73.28
2022-12-18T13:28:06.507Z,63.00
2022-12-18T13:30:44.157Z,57.30
2022-12-18T13:32:45.943Z,47.65
2022-12-18T13:34:48.654Z,49.50
2022-12-18T13:36:53.588Z,46.20
2022-12-18T13:39:28.868Z,46.63
2022-12-18T13:41:35.825Z,47.45
2022-12-18T13:43:42.948Z,49.63
2022-12-18T13:45:48.811Z,72.82
2022-12-18T13:47:51.455Z,58.55
2022-12-18T13:49:53.798Z,57.40
2022-12-18T13:51:57.570Z,86.07
2022-12-18T13:54:02.385Z,55.88
2022-12-18T13:56:05.959Z,51.20
2022-12-18T13:58:07.859Z,59.88
2022-12-18T14:00:26.782Z,51.95
2022-12-18T14:02:29.667Z,48.38
2022-12-18T14:04:35.785Z,54.13
2022-12-18T14:06:37.682Z,55.97
2022-12-18T14:08:43.986Z,54.17
2022-12-18T14:10:49.951Z,54.85
2022-12-18T14:12:52.656Z,57.80
2022-12-18T14:14:55.202Z,55.25
2022-12-18T14:16:57.459Z,53.85
2022-12-18T14:19:02.237Z,53.47
2022-12-18T14:21:20.535Z,59.00
2022-12-18T14:23:31.026Z,50.92
2022-12-18T14:25:33.989Z,48.65
2022-12-18T14:27:39.337Z,60.28
2022-12-18T14:29:44.224Z,57.15
2022-12-18T14:31:45.798Z,53.08
2022-12-18T14:33:47.563Z,48.88
2022-12-18T14:35:58.188Z,54.28
2022-12-18T14:38:21.359Z,53.47
2022-12-18T14:40:23.248Z,50.90
2022-12-18T14:42:27.111Z,57.28
2022-12-18T14:44:39.116Z,54.80
2022-12-18T14:46:51.820Z,58.60
2022-12-18T14:48:55.436Z,51.17
2022-12-18T14:51:00.197Z,51.25
2022-12-18T14:53:01.988Z,56.90
2022-12-18T14:55:03.881Z,53.58
2022-12-18T14:57:22.057Z,59.25
2022-12-18T14:59:27.260Z,54.70
2022-12-18T15:01:32.596Z,53.20
2022-12-18T15:03:34.379Z,51.00
2022-12-18T15:05:36.672Z,51.42
2022-12-18T15:07:42.558Z,58.33
2022-12-18T15:10:04.059Z,55.08
2022-12-18T15:12:06.160Z,51.30
2022-12-18T15:14:32.249Z,49.15
2022-12-18T15:16:33.827Z,48.95
2022-12-18T15:18:42.389Z,50.88
2022-12-18T15:20:46.277Z,57.80
2022-12-18T15:22:48.700Z,49.92
2022-12-18T15:24:51.663Z,57.05
2022-12-18T15:26:54.054Z,51.92
2022-12-18T15:28:57.429Z,88.82
2022-12-18T15:31:02.951Z,64.55
2022-12-18T15:33:25.691Z,75.63
2022-12-18T15:35:27.427Z,64.03
2022-12-18T15:37:29.083Z,54.90
2022-12-18T15:39:30.611Z,53.25
2022-12-18T15:41:33.689Z,54.45
2022-12-18T15:43:39.776Z,50.38
2022-12-18T15:45:41.576Z,49.45
2022-12-18T15:47:44.550Z,52.03
2022-12-18T15:49:46.182Z,50.40
2022-12-18T15:51:52.952Z,56.45
2022-12-18T15:53:56.361Z,54.22
2022-12-18T15:56:01.175Z,48.15
2022-12-18T15:58:03.055Z,49.85
2022-12-18T16:00:05.743Z,47.40
2022-12-18T16:02:18.916Z,52.80
2022-12-18T16:04:23.209Z,64.72
2022-12-18T16:06:24.807Z,44.03
2022-12-18T16:08:26.363Z,49.90
2022-12-18T16:10:28.473Z,57.25
2022-12-18T16:12:30.110Z,51.90
2022-12-18T16:14:32.924Z,50.08
2022-12-18T16:16:34.463Z,52.78
2022-12-18T16:18:35.996Z,52.22
2022-12-18T16:20:39.668Z,47.65
2022-12-18T16:22:41.566Z,55.47
2022-12-18T16:24:43.287Z,49.15
2022-12-18T16:26:45.370Z,46.25
2022-12-18T16:28:48.605Z,52.38
2022-12-18T16:30:50.308Z,53.40
2022-12-18T16:32:51.940Z,49.53
2022-12-18T16:34:53.509Z,44.53
2022-12-18T16:37:01.713Z,57.33
2022-12-18T16:39:06.601Z,59.53
2022-12-18T16:41:21.191Z,56.90
2022-12-18T16:43:22.750Z,52.75
2022-12-18T16:45:31.869Z,51.97
2022-12-18T16:47:34.246Z,55.00
2022-12-18T16:49:36.087Z,55.63
2022-12-18T16:51:37.862Z,47.50
2022-12-18T16:53:41.737Z,54.80
2022-12-18T16:55:43.645Z,66.07
2022-12-18T16:57:45.248Z,53.72
2022-12-18T16:59:47.162Z,50.90
2022-12-18T17:01:48.946Z,57.78
2022-12-18T17:03:52.775Z,54.85
2022-12-18T17:05:54.597Z,72.78
2022-12-18T17:07:56.174Z,45.92
2022-12-18T17:09:59.277Z,55.75
2022-12-18T17:12:04.241Z,48.25
2022-12-18T17:14:07.833Z,52.05
2022-12-18T17:16:09.941Z,55.10
2022-12-18T17:18:11.522Z,58.25
2022-12-18T17:20:14.901Z,57.83
2022-12-18T17:22:16.486Z,57.17
2022-12-18T17:24:18.501Z,68.68
2022-12-18T17:26:21.900Z,53.00
2022-12-18T17:28:23.699Z,53.88
2022-12-18T17:30:25.277Z,81.88
2022-12-18T17:32:26.826Z,116.32
2022-12-18T17:34:28.547Z,85.72
2022-12-18T17:36:31.940Z,81.47
2022-12-18T17:38:33.761Z,61.97
2022-12-18T17:40:35.791Z,70.00
2022-12-18T17:42:38.907Z,60.95
2022-12-18T17:44:40.517Z,58.85
2022-12-18T17:46:42.875Z,58.05
2022-12-18T17:48:44.895Z,60.65
2022-12-18T17:50:46.538Z,52.33
2022-12-18T17:52:48.135Z,54.53
2022-12-18T17:54:49.798Z,64.30
2022-12-18T17:56:51.390Z,60.28
2022-12-18T17:58:54.501Z,60.10
2022-12-18T18:00:58.736Z,56.20
2022-12-18T18:03:00.513Z,58.30
2022-12-18T18:05:02.643Z,49.72
2022-12-18T18:07:04.165Z,54.38
2022-12-18T18:09:05.853Z,49.80
2022-12-18T18:11:16.783Z,54.67
2022-12-18T18:13:20.483Z,51.85
2022-12-18T18:15:23.520Z,55.63
2022-12-18T18:17:25.118Z,58.42
2022-12-18T18:19:26.647Z,55.00
2022-12-18T18:21:30.515Z,52.05
2022-12-18T18:23:32.921Z,58.15
2022-12-18T18:25:36.187Z,52.92
2022-12-18T18:27:38.898Z,61.17
2022-12-18T18:29:40.879Z,59.90
2022-12-18T18:31:46.357Z,60.10
2022-12-18T18:33:48.189Z,63.47
2022-12-18T18:35:54.427Z,53.00
2022-12-18T18:37:56.610Z,56.22
2022-12-18T18:40:01.302Z,54.15
2022-12-18T18:42:03.414Z,51.83
2022-12-18T18:44:05.534Z,50.92
2022-12-18T18:46:07.394Z,57.38
2022-12-18T18:48:10.444Z,54.30
2022-12-18T18:50:12.097Z,53.17
2022-12-18T18:52:13.723Z,48.80
2022-12-18T18:54:15.466Z,49.63
2022-12-18T18:56:56.391Z,61.60
2022-12-18T18:58:41.862Z,58.60
2022-12-18T19:00:43.679Z,60.17
2022-12-18T19:02:46.108Z,64.57
2022-12-18T19:04:49.262Z,61.72
2022-12-18T19:06:50.838Z,82.57
2022-12-18T19:08:53.506Z,75.38
2022-12-18T19:10:58.250Z,59.17
2022-12-18T19:12:59.969Z,69.03
2022-12-18T19:15:01.733Z,60.22
2022-12-18T19:17:04.780Z,60.08
2022-12-18T19:19:07.909Z,54.88
2022-12-18T19:21:11.239Z,55.72
2022-12-18T19:23:12.815Z,52.47
2022-12-18T19:25:14.533Z,52.67
2022-12-18T19:27:16.244Z,57.50
2022-12-18T19:29:17.889Z,49.97
2022-12-18T19:31:29.198Z,51.35
2022-12-18T19:33:44.186Z,52.05
2022-12-18T19:35:46.039Z,57.35
2022-12-18T19:37:49.738Z,54.85
2022-12-18T19:39:51.330Z,48.70
2022-12-18T19:41:53.129Z,52.80
2022-12-18T19:43:55.823Z,48.97
2022-12-18T19:45:57.480Z,51.20
2022-12-18T19:48:04.051Z,44.45
2022-12-18T19:50:07.499Z,51.10
2022-12-18T19:52:09.177Z,48.78
2022-12-18T19:54:16.975Z,52.60
2022-12-18T19:56:21.451Z,52.60
2022-12-18T19:58:23.143Z,49.65
2022-12-18T20:00:26.558Z,57.00
2022-12-18T20:02:28.407Z,49.50
2022-12-18T20:04:30.127Z,53.00
2022-12-18T20:06:34.446Z,66.40
2022-12-18T20:08:36.369Z,49.67
2022-12-18T20:10:39.393Z,49.83
2022-12-18T20:12:41.086Z,59.67
2022-12-18T20:14:42.755Z,54.53
2022-12-18T20:16:44.563Z,52.53
2022-12-18T20:18:46.935Z,56.90
2022-12-18T20:20:48.834Z,49.63
2022-12-18T20:22:52.278Z,57.53
2022-12-18T20:24:53.868Z,57.47
2022-12-18T20:26:57.342Z,63.25
2022-12-18T20:29:00.033Z,101.65
2022-12-18T20:31:03.678Z,117.93
2022-12-18T20:33:05.952Z,82.78
2022-12-18T20:35:07.995Z,62.70
2022-12-18T20:37:10.330Z,65.25
2022-12-18T20:39:14.329Z,54.40
2022-12-18T20:41:18.061Z,51.05
2022-12-18T20:43:21.021Z,53.25
2022-12-18T20:45:22.653Z,55.75
2022-12-18T20:47:24.278Z,54.83
2022-12-18T20:49:26.881Z,59.88
2022-12-18T20:51:28.480Z,52.00
2022-12-18T20:53:30.303Z,55.97
2022-12-18T20:55:31.900Z,56.20
2022-12-18T20:57:33.712Z,57.42
2022-12-18T20:59:39.930Z,52.50
2022-12-18T21:01:48.450Z,62.42
2022-12-18T21:03:51.092Z,65.55
2022-12-18T21:05:52.891Z,58.35
2022-12-18T21:07:54.405Z,51.17
2022-12-18T21:09:56.042Z,58.92
2022-12-18T21:11:57.660Z,57.10
2022-12-18T21:13:59.348Z,55.83
2022-12-18T21:16:02.539Z,58.40
2022-12-18T21:18:05.136Z,56.53
2022-12-18T21:20:08.303Z,52.83
2022-12-18T21:22:10.094Z,50.03
2022-12-18T21:24:12.211Z,54.40
2022-12-18T21:26:18.543Z,55.03
2022-12-18T21:28:20.120Z,51.08
2022-12-18T21:30:21.949Z,57.17
2022-12-18T21:32:24.887Z,55.22
2022-12-18T21:34:31.599Z,51.92
2022-12-18T21:36:34.147Z,60.17
2022-12-18T21:38:35.772Z,55.30
2022-12-18T21:40:38.966Z,61.15
2022-12-18T21:42:40.723Z,58.80
2022-12-18T21:44:43.302Z,53.83
2022-12-18T21:46:51.376Z,53.38
2022-12-18T21:48:57.950Z,59.95
2022-12-18T21:50:59.873Z,59.08
2022-12-18T21:53:01.549Z,61.72
2022-12-18T21:55:09.984Z,54.75
2022-12-18T21:57:13.701Z,51.70
2022-12-18T21:59:16.851Z,57.15
2022-12-18T22:01:18.487Z,55.35
2022-12-18T22:03:20.179Z,53.65
2022-12-18T22:05:23.288Z,57.53
2022-12-18T22:07:24.881Z,59.88
2022-12-18T22:09:26.428Z,58.47
2022-12-18T22:11:28.038Z,64.25
2022-12-18T22:13:29.713Z,54.47
2022-12-18T22:15:31.403Z,56.22
2022-12-18T22:17:33.308Z,58.13
2022-12-18T22:19:41.032Z,53.85
2022-12-18T22:21:47.618Z,51.83
2022-12-18T22:23:52.822Z,54.83
2022-12-18T22:25:54.444Z,57.78
2022-12-18T22:27:56.222Z,56.25
2022-12-18T22:29:57.827Z,52.03
2022-12-18T22:31:59.407Z,56.13
2022-12-18T22:34:01.133Z,50.40
2022-12-18T22:36:06.364Z,53.33
2022-12-18T22:38:09.343Z,54.22
2022-12-18T22:40:22.269Z,57.00
2022-12-18T22:42:25.645Z,51.95
2022-12-18T22:44:27.620Z,60.22
2022-12-18T22:46:31.766Z,50.20
2022-12-18T22:48:33.435Z,61.30
2022-12-18T22:50:34.969Z,54.67
2022-12-18T22:52:36.516Z,56.33
2022-12-18T22:54:39.482Z,54.35
2022-12-18T22:56:41.064Z,49.97
2022-12-18T22:58:42.891Z,54.97
2022-12-18T23:00:44.473Z,51.70
2022-12-18T23:02:46.206Z,55.92
2022-12-18T23:04:48.080Z,52.95
2022-12-18T23:06:49.682Z,55.80
2022-12-18T23:08:55.974Z,54.42
2022-12-18T23:10:59.188Z,53.17
2022-12-18T23:13:00.731Z,58.00
2022-12-18T23:15:02.248Z,52.05
2022-12-18T23:17:03.762Z,52.30
2022-12-18T23:19:05.548Z,86.78
2022-12-18T23:21:09.614Z,62.80
2022-12-18T23:23:11.725Z,60.97
2022-12-18T23:25:14.778Z,63.08
2022-12-18T23:27:17.649Z,57.28
2022-12-18T23:29:19.191Z,71.43
2022-12-18T23:31:23.562Z,89.60
2022-12-18T23:33:25.135Z,99.90
2022-12-18T23:35:26.911Z,69.55
2022-12-18T23:37:56.952Z,59.88
2022-12-18T23:39:50.062Z,59.38
2022-12-18T23:41:51.614Z,61.22
2022-12-18T23:43:54.661Z,58.40
2022-12-18T23:45:56.221Z,55.78
2022-12-18T23:47:57.769Z,69.47
2022-12-18T23:49:59.344Z,67.65
2022-12-18T23:52:01.078Z,59.35
2022-12-18T23:54:02.714Z,57.80
2022-12-18T23:56:08.808Z,71.22
2022-12-18T23:58:16.840Z,76.00
